createdAt,value
2023-03-29T00:00:15.939Z,5.50
2023-03-29T00:03:04.641Z,4.70
2023-03-29T00:05:35.145Z,4.70
2023-03-29T00:08:04.383Z,4.80
2023-03-29T00:10:34.376Z,4.60
2023-03-29T00:13:02.771Z,4.70
2023-03-29T00:15:30.862Z,4.60
2023-03-29T00:17:58.905Z,4.80
2023-03-29T00:20:28.841Z,4.90
2023-03-29T00:22:56.823Z,5.00
2023-03-29T00:25:24.776Z,4.50
2023-03-29T00:27:52.819Z,4.50
2023-03-29T00:30:20.994Z,4.80
2023-03-29T00:32:48.905Z,4.70
2023-03-29T00:35:17.240Z,4.80
2023-03-29T00:37:47.207Z,4.90
2023-03-29T00:40:15.624Z,4.40
2023-03-29T00:42:46.851Z,4.30
2023-03-29T00:45:21.974Z,4.50
2023-03-29T00:47:57.086Z,4.50
2023-03-29T00:50:36.337Z,4.80
2023-03-29T00:53:21.627Z,3.30
2023-03-29T00:55:54.742Z,4.90
2023-03-29T00:58:32.174Z,4.70
2023-03-29T01:01:10.979Z,4.80
2023-03-29T01:03:47.129Z,4.80
2023-03-29T01:06:19.011Z,5.30
2023-03-29T01:08:56.428Z,4.40
2023-03-29T01:11:29.135Z,5.00
2023-03-29T01:14:02.758Z,5.00
2023-03-29T01:16:33.524Z,5.10
2023-03-29T01:19:02.365Z,5.10
2023-03-29T01:21:51.638Z,5.50
2023-03-29T01:24:42.129Z,5.20
2023-03-29T01:27:50.150Z,5.50
2023-03-29T01:30:23.584Z,5.20
2023-03-29T01:32:59.225Z,5.40
2023-03-29T01:35:42.729Z,4.80
2023-03-29T01:38:18.587Z,5.30
2023-03-29T01:40:46.566Z,5.40
2023-03-29T01:43:36.310Z,6.30
2023-03-29T01:46:22.908Z,5.70
2023-03-29T01:48:56.679Z,5.50
2023-03-29T01:51:37.895Z,5.60
2023-03-29T01:54:18.517Z,5.40
2023-03-29T01:56:49.664Z,5.60
2023-03-29T01:59:22.946Z,5.90
2023-03-29T02:01:55.439Z,7.30
2023-03-29T02:04:29.207Z,5.50
2023-03-29T02:07:00.709Z,5.70
2023-03-29T02:09:30.336Z,6.00
2023-03-29T02:12:01.071Z,6.00
2023-03-29T02:14:30.449Z,5.70
2023-03-29T02:17:18.807Z,5.20
2023-03-29T02:19:50.482Z,5.80
2023-03-29T02:22:24.648Z,6.60
2023-03-29T02:24:59.286Z,7.10
2023-03-29T02:27:29.661Z,6.30
2023-03-29T02:29:58.346Z,6.00
2023-03-29T02:32:52.465Z,6.30
2023-03-29T02:35:51.226Z,6.70
2023-03-29T02:38:20.841Z,6.80
2023-03-29T02:40:48.932Z,5.90
2023-03-29T02:43:17.135Z,5.30
2023-03-29T02:45:46.018Z,5.30
2023-03-29T02:48:18.785Z,5.70
2023-03-29T02:50:50.498Z,5.50
2023-03-29T02:53:24.165Z,6.10
2023-03-29T02:55:52.861Z,5.80
2023-03-29T02:58:28.724Z,5.60
2023-03-29T03:01:01.140Z,5.90
2023-03-29T03:03:29.322Z,6.40
2023-03-29T03:05:57.849Z,6.20
2023-03-29T03:08:26.240Z,6.90
2023-03-29T03:10:54.227Z,5.90
2023-03-29T03:13:22.244Z,6.00
2023-03-29T03:15:50.509Z,6.20
2023-03-29T03:18:18.353Z,6.80
2023-03-29T03:21:01.841Z,5.70
2023-03-29T03:23:30.441Z,6.00
2023-03-29T03:25:59.106Z,5.50
2023-03-29T03:28:27.469Z,5.80
2023-03-29T03:30:55.522Z,6.00
2023-03-29T03:33:24.182Z,6.00
2023-03-29T03:35:52.755Z,6.50
2023-03-29T03:38:20.662Z,5.40
2023-03-29T03:40:58.908Z,5.60
2023-03-29T03:43:28.210Z,5.90
2023-03-29T03:45:56.489Z,6.10
2023-03-29T03:48:25.307Z,6.10
2023-03-29T03:50:58.384Z,5.80
2023-03-29T03:53:27.429Z,6.30
2023-03-29T03:55:58.516Z,6.70
2023-03-29T03:58:27.195Z,6.10
2023-03-29T04:00:55.098Z,6.80
2023-03-29T04:03:24.149Z,6.50
2023-03-29T04:05:52.311Z,5.40
2023-03-29T04:08:22.558Z,6.50
2023-03-29T04:10:56.876Z,6.10
2023-03-29T04:13:25.839Z,6.50
2023-03-29T04:15:55.774Z,5.80
2023-03-29T04:18:24.405Z,6.20
2023-03-29T04:20:52.422Z,6.20
2023-03-29T04:23:20.400Z,6.10
2023-03-29T04:25:48.322Z,6.10
2023-03-29T04:28:16.243Z,6.20
2023-03-29T04:30:46.587Z,5.80
2023-03-29T04:33:14.775Z,6.70
2023-03-29T04:35:42.809Z,6.60
2023-03-29T04:38:11.463Z,5.80
2023-03-29T04:40:39.671Z,5.60
2023-03-29T04:43:07.599Z,6.30
2023-03-29T04:45:35.483Z,5.80
2023-03-29T04:48:03.510Z,6.10
2023-03-29T04:50:32.079Z,5.80
2023-03-29T04:53:00.389Z,5.80
2023-03-29T04:55:28.306Z,5.90
2023-03-29T04:57:56.154Z,5.60
2023-03-29T05:00:27.322Z,6.10
2023-03-29T05:02:55.499Z,6.60
2023-03-29T05:05:24.504Z,6.30
2023-03-29T05:07:52.961Z,7.00
2023-03-29T05:10:20.872Z,6.30
2023-03-29T05:12:53.932Z,6.10
2023-03-29T05:15:22.075Z,6.10
2023-03-29T05:17:50.137Z,6.70
2023-03-29T05:20:18.231Z,6.80
2023-03-29T05:22:46.108Z,6.70
2023-03-29T05:25:14.184Z,6.10
2023-03-29T05:27:42.691Z,6.60
2023-03-29T05:30:11.672Z,6.90
2023-03-29T05:32:39.688Z,7.40
2023-03-29T05:35:08.445Z,7.20
2023-03-29T05:37:36.992Z,6.60
2023-03-29T05:40:08.518Z,7.20
2023-03-29T05:42:38.033Z,6.70
2023-03-29T05:45:06.837Z,7.30
2023-03-29T05:47:34.637Z,8.10
2023-03-29T05:50:02.480Z,6.90
2023-03-29T05:52:30.848Z,6.40
2023-03-29T05:54:58.733Z,7.10
2023-03-29T05:57:28.693Z,8.00
2023-03-29T05:59:57.052Z,7.10
2023-03-29T06:02:25.906Z,6.90
2023-03-29T06:04:54.222Z,7.10
2023-03-29T06:07:23.597Z,7.00
2023-03-29T06:09:51.814Z,6.40
2023-03-29T06:12:21.060Z,6.90
2023-03-29T06:14:49.561Z,6.80
2023-03-29T06:17:17.570Z,7.60
2023-03-29T06:19:45.600Z,5.70
2023-03-29T06:22:14.905Z,6.70
2023-03-29T06:24:43.096Z,6.90
2023-03-29T06:27:11.326Z,6.60
2023-03-29T06:29:39.562Z,5.90
2023-03-29T06:32:07.766Z,6.40
2023-03-29T06:34:38.512Z,7.20
2023-03-29T06:37:06.619Z,6.60
2023-03-29T06:39:34.583Z,10.40
2023-03-29T06:42:13.066Z,6.80
2023-03-29T06:44:49.811Z,10.00
2023-03-29T06:47:17.792Z,7.00
2023-03-29T06:49:45.793Z,5.30
2023-03-29T06:52:13.849Z,6.30
2023-03-29T06:54:42.122Z,6.30
2023-03-29T06:57:10.531Z,6.30
2023-03-29T06:59:38.471Z,5.90
2023-03-29T07:02:07.411Z,5.20
2023-03-29T07:04:35.490Z,5.30
2023-03-29T07:07:04.206Z,5.90
2023-03-29T07:09:34.115Z,5.80
2023-03-29T07:12:02.616Z,5.40
2023-03-29T07:14:31.467Z,5.10
2023-03-29T07:17:00.000Z,5.20
2023-03-29T07:19:30.292Z,5.70
2023-03-29T07:21:58.770Z,5.40
2023-03-29T07:24:26.784Z,4.90
2023-03-29T07:27:03.499Z,5.50
2023-03-29T07:29:32.899Z,5.00
2023-03-29T07:32:01.007Z,6.20
2023-03-29T07:34:30.067Z,5.40
2023-03-29T07:36:57.897Z,5.30
2023-03-29T07:39:26.260Z,5.10
2023-03-29T07:41:57.555Z,5.40
2023-03-29T07:44:27.692Z,4.40
2023-03-29T07:46:55.650Z,4.70
2023-03-29T07:49:23.618Z,5.40
2023-03-29T07:51:51.598Z,5.40
2023-03-29T07:54:20.004Z,5.50
2023-03-29T07:56:48.124Z,4.80
2023-03-29T07:59:16.612Z,5.10
2023-03-29T08:01:44.847Z,5.20
2023-03-29T08:04:12.798Z,4.80
2023-03-29T08:06:40.750Z,5.50
2023-03-29T08:09:08.813Z,5.30
2023-03-29T08:11:39.771Z,5.90
2023-03-29T08:14:09.093Z,5.00
2023-03-29T08:16:37.170Z,5.40
2023-03-29T08:19:05.288Z,5.30
2023-03-29T08:21:33.199Z,5.50
2023-03-29T08:24:01.207Z,5.30
2023-03-29T08:26:29.173Z,4.60
2023-03-29T08:28:57.179Z,5.10
2023-03-29T08:31:25.193Z,4.70
2023-03-29T08:33:53.365Z,5.70
2023-03-29T08:36:21.297Z,5.90
2023-03-29T08:38:50.541Z,5.10
2023-03-29T08:41:52.344Z,5.20
2023-03-29T08:44:43.791Z,5.60
2023-03-29T08:47:36.815Z,4.90
2023-03-29T08:50:06.743Z,5.40
2023-03-29T08:52:36.797Z,5.00
2023-03-29T08:55:13.954Z,5.10
2023-03-29T08:57:48.093Z,5.00
2023-03-29T09:00:51.321Z,4.20
2023-03-29T09:03:23.685Z,4.80
2023-03-29T09:06:00.013Z,4.80
2023-03-29T09:08:27.961Z,4.20
2023-03-29T09:11:12.724Z,4.40
2023-03-29T09:14:12.754Z,4.80
2023-03-29T09:17:17.170Z,4.50
2023-03-29T09:19:54.274Z,4.90
2023-03-29T09:22:51.056Z,4.20
2023-03-29T09:25:25.303Z,4.60
2023-03-29T09:28:11.544Z,4.70
2023-03-29T09:30:44.860Z,4.50
2023-03-29T09:33:24.661Z,4.60
2023-03-29T09:36:09.343Z,5.00
2023-03-29T09:38:42.782Z,5.10
2023-03-29T09:41:35.933Z,4.70
2023-03-29T09:44:23.987Z,4.00
2023-03-29T09:47:06.205Z,5.10
2023-03-29T09:49:39.989Z,3.90
2023-03-29T09:52:14.141Z,4.10
2023-03-29T09:54:42.763Z,4.40
2023-03-29T09:57:16.906Z,4.60
2023-03-29T09:59:47.341Z,3.70
2023-03-29T10:02:15.600Z,4.40
2023-03-29T10:04:43.531Z,4.00
2023-03-29T10:07:20.586Z,4.20
2023-03-29T10:09:50.648Z,3.90
2023-03-29T10:12:20.047Z,4.20
2023-03-29T10:14:54.287Z,3.90
2023-03-29T10:17:25.235Z,4.10
2023-03-29T10:19:58.238Z,3.90
2023-03-29T10:22:32.499Z,4.60
2023-03-29T10:25:00.757Z,4.10
2023-03-29T10:27:31.113Z,3.60
2023-03-29T10:30:07.462Z,4.30
2023-03-29T10:32:37.082Z,4.00
2023-03-29T10:35:13.801Z,3.60
2023-03-29T10:37:43.669Z,3.80
2023-03-29T10:40:51.873Z,4.20
2023-03-29T10:43:19.813Z,3.70
2023-03-29T10:45:54.347Z,3.50
2023-03-29T10:48:29.907Z,3.00
2023-03-29T10:51:01.375Z,3.10
2023-03-29T10:53:36.535Z,3.70
2023-03-29T10:56:29.364Z,3.40
2023-03-29T10:59:18.852Z,9.60
2023-03-29T11:02:14.168Z,2.80
2023-03-29T11:04:57.299Z,3.10
2023-03-29T11:07:48.364Z,2.80
2023-03-29T11:10:34.795Z,2.80
2023-03-29T11:13:21.042Z,2.80
2023-03-29T11:16:07.355Z,3.40
2023-03-29T11:18:56.834Z,2.80
2023-03-29T11:21:39.709Z,2.70
2023-03-29T11:24:29.649Z,2.80
2023-03-29T11:27:31.342Z,2.70
2023-03-29T11:30:27.054Z,2.60
2023-03-29T11:33:07.301Z,2.60
2023-03-29T11:35:48.435Z,2.60
2023-03-29T11:38:22.919Z,12.50
2023-03-29T11:40:55.261Z,2.60
2023-03-29T11:43:49.019Z,2.80
2023-03-29T11:46:23.534Z,2.50
2023-03-29T11:49:30.112Z,2.20
2023-03-29T11:52:17.796Z,2.50
2023-03-29T11:54:45.749Z,2.90
2023-03-29T11:57:38.271Z,3.40
2023-03-29T12:00:16.179Z,3.00
2023-03-29T12:03:25.119Z,2.50
2023-03-29T12:06:05.061Z,2.70
2023-03-29T12:08:41.336Z,2.70
2023-03-29T12:11:34.352Z,2.70
2023-03-29T12:14:21.375Z,3.60
2023-03-29T12:16:53.536Z,2.70
2023-03-29T12:19:30.885Z,2.90
2023-03-29T12:22:00.661Z,3.10
2023-03-29T12:24:32.644Z,3.50
2023-03-29T12:27:31.454Z,2.70
2023-03-29T12:30:05.567Z,3.20
2023-03-29T12:32:49.470Z,2.70
2023-03-29T12:35:26.649Z,2.50
2023-03-29T12:38:21.653Z,2.70
2023-03-29T12:40:57.219Z,2.90
2023-03-29T12:43:31.474Z,3.30
2023-03-29T12:46:08.739Z,3.60
2023-03-29T12:48:40.345Z,2.80
2023-03-29T12:51:13.723Z,3.50
2023-03-29T12:53:50.986Z,3.10
2023-03-29T12:56:24.186Z,3.00
2023-03-29T12:59:10.826Z,3.20
2023-03-29T13:01:41.568Z,3.60
2023-03-29T13:04:18.557Z,2.80
2023-03-29T13:06:46.648Z,3.20
2023-03-29T13:09:42.774Z,3.30
2023-03-29T13:12:10.642Z,3.60
2023-03-29T13:14:43.885Z,3.30
2023-03-29T13:17:27.601Z,3.30
2023-03-29T13:20:11.082Z,3.40
2023-03-29T13:22:54.069Z,3.00
2023-03-29T13:25:37.196Z,3.10
2023-03-29T13:28:17.162Z,3.00
2023-03-29T13:31:06.300Z,2.90
2023-03-29T13:33:52.606Z,2.70
2023-03-29T13:36:42.373Z,3.40
2023-03-29T13:39:22.643Z,3.20
2023-03-29T13:41:54.331Z,3.10
2023-03-29T13:44:22.221Z,7.50
2023-03-29T13:47:06.503Z,7.30
2023-03-29T13:52:16.352Z,3.80
2023-03-29T13:54:58.055Z,4.20
2023-03-29T13:57:35.025Z,3.90
2023-03-29T14:00:17.946Z,3.70
2023-03-29T14:02:58.228Z,4.00
2023-03-29T14:05:32.096Z,3.90
2023-03-29T14:08:06.956Z,3.60
2023-03-29T14:10:42.132Z,4.30
2023-03-29T14:13:14.872Z,4.40
2023-03-29T14:15:50.741Z,4.00
2023-03-29T14:18:22.850Z,3.80
2023-03-29T14:20:56.227Z,3.30
2023-03-29T14:23:28.052Z,3.70
2023-03-29T14:26:06.083Z,4.00
2023-03-29T14:28:33.991Z,3.90
2023-03-29T14:31:02.148Z,3.90
2023-03-29T14:33:34.718Z,3.60
2023-03-29T14:36:04.730Z,4.00
2023-03-29T14:38:36.346Z,4.00
2023-03-29T14:41:04.953Z,3.80
2023-03-29T14:43:33.092Z,3.80
2023-03-29T14:46:09.341Z,3.60
2023-03-29T14:48:38.090Z,3.60
2023-03-29T14:51:06.581Z,3.50
2023-03-29T14:53:38.069Z,3.40
2023-03-29T14:56:07.706Z,3.10
2023-03-29T14:58:36.424Z,3.50
2023-03-29T15:01:17.980Z,3.30
2023-03-29T15:04:10.300Z,3.30
2023-03-29T15:06:41.760Z,3.60
2023-03-29T15:09:24.925Z,3.60
2023-03-29T15:11:55.648Z,4.00
2023-03-29T15:14:27.020Z,3.90
2023-03-29T15:17:03.192Z,3.60
2023-03-29T15:19:31.937Z,3.70
2023-03-29T15:22:06.115Z,3.50
2023-03-29T15:24:34.196Z,3.50
2023-03-29T15:27:11.242Z,3.80
2023-03-29T15:29:42.369Z,4.20
2023-03-29T15:32:20.624Z,3.70
2023-03-29T15:34:58.806Z,3.60
2023-03-29T15:37:27.564Z,3.60
2023-03-29T15:39:56.463Z,3.60
2023-03-29T15:42:25.729Z,3.80
2023-03-29T15:44:55.117Z,3.40
2023-03-29T15:47:24.076Z,3.70
2023-03-29T15:49:52.075Z,3.70
2023-03-29T15:52:19.917Z,3.50
2023-03-29T15:54:47.839Z,3.70
2023-03-29T15:57:16.281Z,3.90
2023-03-29T15:59:44.820Z,7.40
2023-03-29T16:02:20.314Z,3.90
2023-03-29T16:04:48.226Z,3.80
2023-03-29T16:07:18.672Z,3.60
2023-03-29T16:09:47.043Z,3.30
2023-03-29T16:12:17.458Z,3.50
2023-03-29T16:14:45.835Z,3.50
2023-03-29T16:17:14.261Z,3.80
2023-03-29T16:19:42.432Z,3.70
2023-03-29T16:22:10.555Z,3.50
2023-03-29T16:24:39.053Z,4.00
2023-03-29T16:27:07.150Z,3.60
2023-03-29T16:29:35.366Z,3.90
2023-03-29T16:32:05.471Z,4.00
2023-03-29T16:34:36.209Z,3.60
2023-03-29T16:37:04.181Z,3.60
2023-03-29T16:39:32.269Z,4.10
2023-03-29T16:42:00.262Z,4.00
2023-03-29T16:44:28.156Z,4.00
2023-03-29T16:46:58.464Z,4.50
2023-03-29T16:49:26.664Z,4.00
2023-03-29T16:51:54.700Z,4.10
2023-03-29T16:54:25.928Z,4.70
2023-03-29T16:56:54.364Z,4.50
2023-03-29T16:59:22.515Z,4.30
2023-03-29T17:01:53.385Z,4.00
2023-03-29T17:04:21.361Z,4.10
2023-03-29T17:06:49.487Z,4.00
2023-03-29T17:09:17.785Z,4.10
2023-03-29T17:11:46.413Z,3.90
2023-03-29T17:14:14.668Z,4.50
2023-03-29T17:16:42.669Z,8.80
2023-03-29T17:19:10.738Z,12.70
2023-03-29T17:21:38.719Z,11.50
2023-03-29T17:24:07.046Z,15.20
2023-03-29T17:26:35.599Z,8.80
2023-03-29T17:29:04.509Z,5.20
2023-03-29T17:31:34.857Z,5.10
2023-03-29T17:34:03.488Z,14.30
2023-03-29T17:36:34.038Z,16.70
2023-03-29T17:39:02.840Z,7.30
2023-03-29T17:41:31.239Z,6.50
2023-03-29T17:43:59.720Z,5.50
2023-03-29T17:46:27.939Z,5.00
2023-03-29T17:48:56.145Z,4.80
2023-03-29T17:51:24.597Z,4.50
2023-03-29T17:53:52.984Z,4.60
2023-03-29T17:56:21.837Z,4.20
2023-03-29T17:58:50.673Z,4.70
2023-03-29T18:01:21.080Z,5.10
2023-03-29T18:03:49.043Z,5.10
2023-03-29T18:06:19.608Z,4.80
2023-03-29T18:08:47.898Z,5.50
2023-03-29T18:11:22.933Z,5.00
2023-03-29T18:13:54.911Z,5.30
2023-03-29T18:16:23.527Z,21.00
2023-03-29T18:18:52.041Z,21.30
2023-03-29T18:21:21.293Z,23.50
2023-03-29T18:23:50.069Z,54.40
2023-03-29T18:26:18.450Z,34.80
2023-03-29T18:28:50.843Z,38.80
2023-03-29T18:31:20.157Z,54.90
2023-03-29T18:33:48.352Z,46.40
2023-03-29T18:36:16.871Z,38.20
2023-03-29T18:38:44.997Z,38.00
2023-03-29T18:41:15.555Z,27.40
2023-03-29T18:43:44.338Z,27.30
2023-03-29T18:46:14.986Z,28.20
2023-03-29T18:48:44.793Z,16.00
2023-03-29T18:51:15.133Z,8.30
2023-03-29T18:53:44.404Z,7.50
2023-03-29T18:56:12.418Z,5.90
2023-03-29T18:58:40.308Z,6.60
2023-03-29T19:01:11.120Z,6.50
2023-03-29T19:03:39.622Z,6.20
2023-03-29T19:06:08.023Z,7.30
2023-03-29T19:08:38.747Z,6.70
2023-03-29T19:11:08.852Z,6.50
2023-03-29T19:13:38.751Z,6.60
2023-03-29T19:16:07.041Z,7.20
2023-03-29T19:18:35.287Z,7.00
2023-03-29T19:21:03.514Z,8.70
2023-03-29T19:23:31.521Z,7.60
2023-03-29T19:26:02.872Z,7.60
2023-03-29T19:28:32.585Z,7.30
2023-03-29T19:31:02.642Z,7.50
2023-03-29T19:33:30.734Z,7.60
2023-03-29T19:35:58.781Z,8.30
2023-03-29T19:38:27.184Z,7.50
2023-03-29T19:40:55.093Z,7.30
2023-03-29T19:43:24.895Z,8.80
2023-03-29T19:45:52.772Z,9.00
2023-03-29T19:48:23.407Z,9.50
2023-03-29T19:50:52.242Z,10.10
2023-03-29T19:53:20.128Z,9.20
2023-03-29T19:55:49.498Z,9.60
2023-03-29T19:58:17.432Z,10.70
2023-03-29T20:00:45.339Z,14.00
2023-03-29T20:03:14.026Z,12.90
2023-03-29T20:05:42.376Z,11.30
2023-03-29T20:08:10.400Z,11.40
2023-03-29T20:10:38.464Z,11.50
2023-03-29T20:13:06.770Z,11.00
2023-03-29T20:15:35.230Z,11.00
2023-03-29T20:18:03.542Z,11.00
2023-03-29T20:20:31.907Z,10.70
2023-03-29T20:23:04.682Z,12.50
2023-03-29T20:25:35.682Z,11.60
2023-03-29T20:28:04.790Z,12.00
2023-03-29T20:30:32.986Z,11.20
2023-03-29T20:33:01.088Z,11.20
2023-03-29T20:35:29.193Z,12.10
2023-03-29T20:37:57.194Z,10.60
2023-03-29T20:40:25.132Z,11.50
2023-03-29T20:42:54.356Z,10.80
2023-03-29T20:45:22.297Z,10.20
2023-03-29T20:47:57.712Z,10.10
2023-03-29T20:50:26.462Z,10.70
2023-03-29T20:52:55.830Z,11.50
2023-03-29T20:55:24.249Z,11.00
2023-03-29T20:57:59.488Z,10.30
2023-03-29T21:00:30.255Z,10.70
2023-03-29T21:03:01.309Z,10.40
2023-03-29T21:05:32.211Z,10.80
2023-03-29T21:08:00.731Z,10.80
2023-03-29T21:10:29.711Z,11.70
2023-03-29T21:13:02.723Z,11.70
2023-03-29T21:15:32.110Z,12.30
2023-03-29T21:18:00.225Z,12.70
2023-03-29T21:20:28.151Z,13.30
2023-03-29T21:22:56.061Z,13.90
2023-03-29T21:25:24.081Z,15.50
2023-03-29T21:27:52.118Z,15.80
2023-03-29T21:30:20.121Z,18.60
2023-03-29T21:32:48.067Z,21.70
2023-03-29T21:35:16.047Z,17.70
2023-03-29T21:37:43.906Z,17.40
2023-03-29T21:40:12.719Z,17.90
2023-03-29T21:42:40.654Z,17.40
2023-03-29T21:45:09.753Z,17.50
2023-03-29T21:47:37.823Z,18.10
2023-03-29T21:50:09.461Z,23.50
2023-03-29T21:52:37.855Z,26.10
2023-03-29T21:55:06.698Z,29.70
2023-03-29T21:57:34.681Z,23.90
2023-03-29T22:00:05.524Z,22.10
2023-03-29T22:02:33.503Z,20.90
2023-03-29T22:05:01.619Z,21.70
2023-03-29T22:07:29.620Z,17.50
2023-03-29T22:09:58.865Z,17.30
2023-03-29T22:12:27.231Z,16.10
2023-03-29T22:14:55.145Z,16.00
2023-03-29T22:17:26.847Z,16.80
2023-03-29T22:19:57.260Z,16.30
2023-03-29T22:22:25.742Z,17.00
2023-03-29T22:24:54.862Z,16.70
2023-03-29T22:27:23.179Z,17.30
2023-03-29T22:29:51.306Z,17.10
2023-03-29T22:32:19.197Z,17.60
2023-03-29T22:34:47.087Z,16.70
2023-03-29T22:37:15.091Z,17.30
2023-03-29T22:39:43.038Z,17.00
2023-03-29T22:42:10.942Z,17.30
2023-03-29T22:44:38.864Z,16.40
2023-03-29T22:47:06.998Z,17.70
2023-03-29T22:49:34.971Z,17.00
2023-03-29T22:52:02.972Z,16.00
2023-03-29T22:54:31.271Z,16.10
2023-03-29T22:56:59.313Z,15.20
2023-03-29T22:59:27.406Z,16.00
2023-03-29T23:01:55.495Z,13.90
2023-03-29T23:04:23.471Z,15.40
2023-03-29T23:06:51.494Z,14.70
2023-03-29T23:09:19.581Z,15.40
2023-03-29T23:11:47.607Z,14.70
2023-03-29T23:14:15.635Z,16.90
2023-03-29T23:16:44.055Z,14.50
2023-03-29T23:19:12.045Z,14.10
2023-03-29T23:21:40.966Z,13.00
2023-03-29T23:24:08.910Z,12.10
2023-03-29T23:26:37.620Z,12.90
2023-03-29T23:29:05.605Z,12.20
2023-03-29T23:31:34.096Z,11.80
2023-03-29T23:34:03.304Z,11.90
2023-03-29T23:36:31.716Z,12.20
2023-03-29T23:39:00.457Z,11.50
2023-03-29T23:41:30.594Z,10.80
2023-03-29T23:43:58.745Z,10.40
2023-03-29T23:46:26.850Z,11.10
2023-03-29T23:48:55.484Z,10.00
2023-03-29T23:51:28.849Z,9.00
2023-03-29T23:53:57.117Z,10.50
2023-03-29T23:56:25.244Z,8.60
2023-03-29T23:58:53.551Z,8.80
